createdAt,value
2018-07-08T00:00:50.199Z,988.379
2018-07-08T00:02:50.387Z,988.377
2018-07-08T00:04:49.878Z,988.378
2018-07-08T00:06:50.213Z,988.390
2018-07-08T00:08:50.294Z,988.428
2018-07-08T00:10:50.416Z,988.425
2018-07-08T00:12:50.583Z,988.440
2018-07-08T00:14:49.780Z,988.440
2018-07-08T00:16:50.016Z,988.465
2018-07-08T00:18:50.169Z,988.465
2018-07-08T00:20:50.373Z,988.503
2018-07-08T00:22:50.491Z,988.511
2018-07-08T00:24:49.711Z,988.511
2018-07-08T00:26:50.099Z,988.517
2018-07-08T00:28:50.263Z,988.535
2018-07-08T00:30:50.508Z,988.547
2018-07-08T00:32:49.753Z,988.556
2018-07-08T00:34:50.157Z,988.554
2018-07-08T00:36:50.560Z,988.546
2018-07-08T00:38:49.702Z,988.568
2018-07-08T00:40:49.912Z,988.582
2018-07-08T00:42:50.245Z,988.590
2018-07-08T00:44:50.347Z,988.605
2018-07-08T00:46:49.866Z,988.605
2018-07-08T00:48:50.007Z,988.572
2018-07-08T00:50:50.121Z,988.572
2018-07-08T00:52:50.269Z,988.577
2018-07-08T00:54:50.400Z,988.539
2018-07-08T00:56:49.765Z,988.539
2018-07-08T00:58:49.862Z,988.508
2018-07-08T01:00:50.132Z,988.502
2018-07-08T01:02:50.290Z,988.514
2018-07-08T01:04:49.726Z,988.520
2018-07-08T01:06:49.893Z,988.527
2018-07-08T01:08:50.447Z,988.546
2018-07-08T01:10:50.173Z,988.551
2018-07-08T01:12:50.353Z,988.563
2018-07-08T01:14:50.464Z,988.562
2018-07-08T01:16:49.736Z,988.555
2018-07-08T01:18:49.834Z,988.563
2018-07-08T01:20:50.021Z,988.572
2018-07-08T01:22:50.221Z,988.579
2018-07-08T01:24:50.412Z,988.591
2018-07-08T01:26:49.777Z,988.599
2018-07-08T01:28:49.905Z,988.611
2018-07-08T01:30:50.095Z,988.618
2018-07-08T01:32:50.338Z,988.630
2018-07-08T01:34:49.981Z,988.667
2018-07-08T01:36:50.428Z,988.647
2018-07-08T01:38:50.549Z,988.646
2018-07-08T01:40:49.813Z,988.636
2018-07-08T01:42:50.144Z,988.628
2018-07-08T01:44:50.312Z,988.628
2018-07-08T01:46:49.695Z,988.614
2018-07-08T01:48:49.822Z,988.615
2018-07-08T01:50:50.072Z,988.611
2018-07-08T01:52:50.323Z,988.608
2018-07-08T01:54:50.491Z,988.593
2018-07-08T01:56:49.945Z,988.573
2018-07-08T01:58:50.062Z,988.556
2018-07-08T02:00:50.293Z,988.543
2018-07-08T02:02:50.452Z,988.543
2018-07-08T02:04:49.772Z,988.537
2018-07-08T02:06:50.243Z,988.520
2018-07-08T02:08:50.597Z,988.544
2018-07-08T02:10:49.842Z,988.547
2018-07-08T02:12:49.952Z,988.551
2018-07-08T02:14:50.153Z,988.548
2018-07-08T02:16:50.576Z,988.559
2018-07-08T02:18:49.940Z,988.552
2018-07-08T02:20:50.183Z,988.551
2018-07-08T02:22:50.345Z,988.554
2018-07-08T02:24:50.505Z,988.555
2018-07-08T02:26:50.019Z,988.559
2018-07-08T02:28:50.124Z,988.553
2018-07-08T02:30:50.281Z,988.568
2018-07-08T02:32:50.493Z,988.589
2018-07-08T02:34:50.027Z,988.592
2018-07-08T02:36:50.497Z,988.596
2018-07-08T02:38:49.653Z,988.611
2018-07-08T02:40:49.883Z,988.618
2018-07-08T02:42:50.210Z,988.630
2018-07-08T02:44:50.348Z,988.630
2018-07-08T02:46:49.803Z,988.628
2018-07-08T02:48:49.964Z,988.631
2018-07-08T02:50:50.142Z,988.647
2018-07-08T02:52:50.321Z,988.654
2018-07-08T02:54:50.447Z,988.665
2018-07-08T02:56:49.800Z,988.678
2018-07-08T02:58:49.980Z,988.691
2018-07-08T03:00:50.112Z,988.711
2018-07-08T03:02:50.221Z,988.725
2018-07-08T03:04:49.723Z,988.737
2018-07-08T03:06:50.053Z,988.741
2018-07-08T03:08:50.168Z,988.733
2018-07-08T03:10:50.348Z,988.744
2018-07-08T03:12:50.514Z,988.757
2018-07-08T03:14:49.717Z,988.776
2018-07-08T03:16:49.929Z,988.780
2018-07-08T03:18:50.434Z,988.789
2018-07-08T03:20:50.593Z,988.780
2018-07-08T03:22:49.876Z,988.780
2018-07-08T03:24:50.044Z,988.750
2018-07-08T03:26:50.403Z,988.740
2018-07-08T03:28:49.648Z,988.728
2018-07-08T03:30:49.793Z,988.737
2018-07-08T03:32:49.985Z,988.744
2018-07-08T03:34:50.277Z,988.746
2018-07-08T03:36:50.569Z,988.749
2018-07-08T03:38:49.713Z,988.748
2018-07-08T03:40:49.833Z,988.754
2018-07-08T03:42:50.192Z,988.791
2018-07-08T03:44:50.297Z,988.792
2018-07-08T03:46:49.604Z,988.792
2018-07-08T03:48:49.798Z,988.807
2018-07-08T03:50:49.931Z,988.806
2018-07-08T03:52:50.154Z,988.805
2018-07-08T03:54:50.365Z,988.817
2018-07-08T03:56:49.744Z,988.825
2018-07-08T03:58:49.978Z,988.837
2018-07-08T04:00:50.107Z,988.843
2018-07-08T04:02:50.227Z,988.871
2018-07-08T04:04:49.741Z,988.888
2018-07-08T04:06:50.373Z,988.906
2018-07-08T04:08:50.537Z,988.906
2018-07-08T04:10:49.690Z,988.926
2018-07-08T04:12:49.897Z,988.928
2018-07-08T04:14:50.098Z,988.922
2018-07-08T04:16:50.410Z,988.926
2018-07-08T04:18:49.637Z,988.934
2018-07-08T04:20:49.751Z,988.958
2018-07-08T04:22:49.922Z,988.960
2018-07-08T04:24:50.187Z,988.956
2018-07-08T04:26:50.452Z,988.945
2018-07-08T04:28:49.760Z,988.921
2018-07-08T04:30:49.862Z,988.892
2018-07-08T04:32:49.947Z,988.888
2018-07-08T04:34:50.486Z,988.886
2018-07-08T04:36:49.791Z,988.890
2018-07-08T04:38:49.946Z,988.892
2018-07-08T04:40:50.111Z,988.896
2018-07-08T04:42:50.231Z,988.895
2018-07-08T04:44:50.351Z,988.896
2018-07-08T04:46:49.687Z,988.889
2018-07-08T04:48:49.825Z,988.877
2018-07-08T04:50:50.147Z,988.882
2018-07-08T04:52:50.352Z,988.909
2018-07-08T04:54:49.645Z,988.914
2018-07-08T04:56:50.036Z,988.914
2018-07-08T04:58:50.101Z,988.913
2018-07-08T05:00:50.337Z,988.905
2018-07-08T05:02:49.788Z,988.878
2018-07-08T05:04:50.282Z,988.882
2018-07-08T05:06:50.568Z,988.879
2018-07-08T05:08:49.677Z,988.869
2018-07-08T05:10:49.904Z,988.867
2018-07-08T05:12:50.090Z,988.849
2018-07-08T05:14:50.246Z,988.846
2018-07-08T05:16:50.491Z,988.832
2018-07-08T05:18:50.599Z,988.837
2018-07-08T05:20:49.804Z,988.847
2018-07-08T05:22:49.964Z,988.845
2018-07-08T05:24:50.076Z,988.881
2018-07-08T05:26:50.497Z,988.914
2018-07-08T05:28:49.627Z,988.914
2018-07-08T05:30:49.900Z,988.947
2018-07-08T05:32:50.074Z,988.979
2018-07-08T05:34:50.621Z,989.001
2018-07-08T05:36:50.543Z,989.008
2018-07-08T05:38:49.777Z,989.008
2018-07-08T05:40:49.921Z,988.979
2018-07-08T05:42:50.066Z,988.976
2018-07-08T05:44:50.201Z,988.972
2018-07-08T05:46:50.519Z,988.969
2018-07-08T05:48:49.740Z,988.967
2018-07-08T05:50:50.082Z,988.972
2018-07-08T05:52:50.253Z,988.979
2018-07-08T05:54:49.625Z,988.977
2018-07-08T05:56:50.184Z,988.985
2018-07-08T05:58:50.316Z,988.996
2018-07-08T06:00:50.549Z,988.978
2018-07-08T06:02:49.714Z,988.963
2018-07-08T06:04:50.166Z,988.983
2018-07-08T06:06:50.603Z,988.992
2018-07-08T06:08:49.869Z,989.008
2018-07-08T06:10:50.159Z,989.017
2018-07-08T06:12:50.331Z,989.016
2018-07-08T06:14:50.497Z,989.023
2018-07-08T06:16:49.852Z,989.023
2018-07-08T06:18:50.313Z,989.023
2018-07-08T06:20:49.636Z,989.008
2018-07-08T06:22:49.947Z,988.969
2018-07-08T06:24:50.237Z,988.967
2018-07-08T06:26:49.671Z,988.933
2018-07-08T06:28:49.824Z,988.925
2018-07-08T06:30:49.981Z,988.920
2018-07-08T06:32:50.145Z,988.926
2018-07-08T06:34:50.547Z,988.906
2018-07-08T06:36:49.995Z,988.895
2018-07-08T06:38:50.185Z,988.901
2018-07-08T06:40:50.396Z,988.915
2018-07-08T06:42:50.533Z,988.925
2018-07-08T06:44:49.877Z,988.950
2018-07-08T06:46:50.219Z,988.970
2018-07-08T06:48:50.380Z,989.010
2018-07-08T06:50:50.593Z,989.054
2018-07-08T06:52:49.972Z,989.053
2018-07-08T06:54:50.185Z,989.041
2018-07-08T06:56:50.517Z,989.035
2018-07-08T06:58:49.696Z,989.038
2018-07-08T07:00:49.927Z,989.045
2018-07-08T07:02:50.187Z,989.038
2018-07-08T07:04:49.635Z,989.045
2018-07-08T07:06:50.274Z,989.045
2018-07-08T07:08:50.001Z,989.047
2018-07-08T07:10:50.208Z,989.047
2018-07-08T07:12:50.384Z,989.065
2018-07-08T07:14:50.509Z,989.077
2018-07-08T07:16:49.863Z,989.071
2018-07-08T07:18:49.981Z,989.086
2018-07-08T07:20:50.218Z,989.102
2018-07-08T07:22:50.369Z,989.099
2018-07-08T07:24:50.549Z,989.068
2018-07-08T07:26:49.822Z,989.064
2018-07-08T07:28:50.006Z,989.068
2018-07-08T07:30:50.199Z,989.037
2018-07-08T07:32:50.409Z,989.017
2018-07-08T07:34:50.000Z,989.016
2018-07-08T07:36:50.288Z,989.031
2018-07-08T07:38:50.468Z,989.036
2018-07-08T07:40:49.644Z,989.024
2018-07-08T07:42:49.798Z,989.003
2018-07-08T07:44:49.975Z,989.004
2018-07-08T07:46:50.296Z,988.991
2018-07-08T07:48:50.392Z,988.987
2018-07-08T07:50:50.523Z,988.996
2018-07-08T07:52:49.790Z,989.014
2018-07-08T07:54:49.962Z,989.027
2018-07-08T07:56:50.269Z,989.019
2018-07-08T07:58:50.447Z,989.000
2018-07-08T08:00:49.754Z,988.993
2018-07-08T08:02:49.947Z,988.997
2018-07-08T08:04:50.371Z,989.001
2018-07-08T08:06:49.736Z,989.022
2018-07-08T08:08:49.858Z,989.008
2018-07-08T08:10:50.310Z,989.013
2018-07-08T08:12:50.030Z,988.991
2018-07-08T08:14:50.174Z,988.994
2018-07-08T08:16:50.509Z,988.994
2018-07-08T08:18:49.696Z,988.970
2018-07-08T08:20:49.820Z,988.950
2018-07-08T08:22:49.931Z,988.931
2018-07-08T08:24:50.203Z,988.907
2018-07-08T08:26:50.996Z,988.904
2018-07-08T08:28:50.464Z,988.871
2018-07-08T08:30:49.682Z,988.838
2018-07-08T08:32:50.300Z,988.826
2018-07-08T08:34:50.417Z,988.808
2018-07-08T08:36:49.688Z,988.809
2018-07-08T08:38:49.921Z,988.799
2018-07-08T08:40:50.050Z,988.820
2018-07-08T08:42:50.309Z,988.846
2018-07-08T08:44:50.540Z,988.837
2018-07-08T08:46:49.922Z,988.836
2018-07-08T08:48:50.079Z,988.838
2018-07-08T08:50:50.241Z,988.883
2018-07-08T08:52:49.686Z,988.867
2018-07-08T08:54:49.897Z,988.843
2018-07-08T08:56:50.289Z,988.829
2018-07-08T08:58:50.518Z,988.822
2018-07-08T09:00:49.696Z,988.836
2018-07-08T09:02:49.942Z,988.835
2018-07-08T09:04:50.457Z,988.831
2018-07-08T09:06:49.881Z,988.817
2018-07-08T09:08:50.001Z,988.821
2018-07-08T09:10:50.395Z,988.829
2018-07-08T09:12:49.957Z,988.811
2018-07-08T09:14:50.082Z,988.803
2018-07-08T09:16:50.432Z,988.783
2018-07-08T09:18:49.726Z,988.760
2018-07-08T09:20:49.908Z,988.712
2018-07-08T09:22:50.067Z,988.686
2018-07-08T09:24:50.222Z,988.666
2018-07-08T09:26:50.603Z,988.694
2018-07-08T09:28:49.755Z,988.667
2018-07-08T09:30:50.035Z,988.653
2018-07-08T09:32:50.465Z,988.650
2018-07-08T09:34:49.834Z,988.638
2018-07-08T09:36:50.139Z,988.645
2018-07-08T09:38:50.614Z,988.652
2018-07-08T09:40:49.661Z,988.677
2018-07-08T09:42:49.839Z,988.679
2018-07-08T09:44:49.994Z,988.698
2018-07-08T09:46:50.380Z,988.687
2018-07-08T09:48:49.616Z,988.693
2018-07-08T09:50:49.933Z,988.691
2018-07-08T09:52:50.095Z,988.728
2018-07-08T09:54:50.240Z,988.697
2018-07-08T09:56:50.555Z,988.714
2018-07-08T09:58:49.734Z,988.697
2018-07-08T10:00:49.835Z,988.675
2018-07-08T10:02:50.057Z,988.654
2018-07-08T10:04:50.620Z,988.627
2018-07-08T10:06:50.420Z,988.622
2018-07-08T10:08:50.558Z,988.605
2018-07-08T10:10:49.881Z,988.575
2018-07-08T10:12:50.450Z,988.575
2018-07-08T10:14:49.796Z,988.623
2018-07-08T10:16:50.216Z,988.610
2018-07-08T10:18:50.523Z,988.589
2018-07-08T10:20:50.103Z,988.583
2018-07-08T10:22:50.328Z,988.556
2018-07-08T10:24:50.126Z,988.509
2018-07-08T10:26:50.113Z,988.463
2018-07-08T10:28:50.384Z,988.435
2018-07-08T10:30:49.726Z,988.422
2018-07-08T10:32:49.962Z,988.419
2018-07-08T10:34:50.291Z,988.398
2018-07-08T10:36:49.649Z,988.383
2018-07-08T10:38:49.924Z,988.395
2018-07-08T10:40:50.139Z,988.403
2018-07-08T10:42:50.342Z,988.396
2018-07-08T10:44:50.465Z,988.419
2018-07-08T10:46:49.812Z,988.402
2018-07-08T10:48:49.883Z,988.401
2018-07-08T10:50:50.148Z,988.389
2018-07-08T10:52:50.330Z,988.398
2018-07-08T10:54:50.512Z,988.391
2018-07-08T10:56:49.853Z,988.422
2018-07-08T10:58:49.966Z,988.408
2018-07-08T11:00:50.175Z,988.389
2018-07-08T11:02:50.337Z,988.386
2018-07-08T11:04:49.678Z,988.369
2018-07-08T11:06:50.026Z,988.354
2018-07-08T11:08:50.198Z,988.289
2018-07-08T11:10:50.674Z,988.269
2018-07-08T11:12:50.090Z,988.274
2018-07-08T11:14:50.275Z,988.278
2018-07-08T11:16:50.553Z,988.228
2018-07-08T11:18:49.741Z,988.201
2018-07-08T11:20:49.984Z,988.163
2018-07-08T11:22:50.431Z,988.153
2018-07-08T11:24:49.739Z,988.153
2018-07-08T11:26:50.053Z,988.122
2018-07-08T11:28:50.354Z,988.111
2018-07-08T11:30:50.474Z,988.122
2018-07-08T11:32:49.823Z,988.102
2018-07-08T11:34:50.210Z,988.124
2018-07-08T11:36:50.437Z,988.114
2018-07-08T11:38:49.712Z,988.100
2018-07-08T11:40:49.849Z,988.074
2018-07-08T11:42:50.128Z,988.059
2018-07-08T11:44:50.470Z,988.084
2018-07-08T11:46:49.876Z,988.124
2018-07-08T11:48:49.992Z,988.117
2018-07-08T11:50:50.124Z,988.133
2018-07-08T11:52:50.330Z,988.069
2018-07-08T11:54:50.491Z,988.035
2018-07-08T11:56:49.829Z,988.015
2018-07-08T11:58:50.013Z,988.001
2018-07-08T12:00:50.140Z,988.004
2018-07-08T12:02:50.301Z,988.014
2018-07-08T12:04:49.874Z,988.023
2018-07-08T12:06:50.131Z,988.016
2018-07-08T12:08:50.501Z,987.958
2018-07-08T12:10:49.838Z,987.922
2018-07-08T12:12:50.081Z,987.913
2018-07-08T12:14:50.145Z,987.931
2018-07-08T12:16:50.443Z,987.934
2018-07-08T12:18:50.549Z,987.882
2018-07-08T12:20:49.808Z,987.849
2018-07-08T12:22:49.916Z,987.854
2018-07-08T12:24:50.008Z,987.896
2018-07-08T12:26:50.257Z,987.902
2018-07-08T12:28:50.338Z,987.885
2018-07-08T12:30:50.568Z,987.885
2018-07-08T12:32:49.713Z,987.880
2018-07-08T12:34:49.991Z,987.856
2018-07-08T12:36:50.525Z,987.854
2018-07-08T12:38:49.956Z,987.834
2018-07-08T12:40:50.174Z,987.834
2018-07-08T12:42:50.248Z,987.788
2018-07-08T12:44:50.554Z,987.775
2018-07-08T12:46:49.648Z,987.742
2018-07-08T12:48:49.757Z,987.715
2018-07-08T12:50:49.932Z,987.729
2018-07-08T12:52:50.054Z,987.748
2018-07-08T12:54:50.092Z,987.744
2018-07-08T12:56:50.390Z,987.749
2018-07-08T12:58:50.512Z,987.710
2018-07-08T13:00:49.899Z,987.675
2018-07-08T13:02:49.984Z,987.643
2018-07-08T13:04:50.407Z,987.661
2018-07-08T13:06:49.782Z,987.633
2018-07-08T13:08:49.925Z,987.629
2018-07-08T13:10:50.257Z,987.639
2018-07-08T13:12:50.400Z,987.638
2018-07-08T13:14:50.496Z,987.633
2018-07-08T13:16:49.832Z,987.640
2018-07-08T13:18:50.114Z,987.594
2018-07-08T13:20:50.249Z,987.572
2018-07-08T13:22:50.511Z,987.541
2018-07-08T13:24:49.714Z,987.545
2018-07-08T13:26:50.030Z,987.563
2018-07-08T13:28:50.157Z,987.576
2018-07-08T13:30:50.300Z,987.550
2018-07-08T13:32:50.395Z,987.564
2018-07-08T13:34:49.846Z,987.548
2018-07-08T13:36:50.229Z,987.506
2018-07-08T13:38:50.527Z,987.503
2018-07-08T13:40:50.058Z,987.510
2018-07-08T13:42:50.246Z,987.513
2018-07-08T13:44:50.433Z,987.535
2018-07-08T13:46:49.725Z,987.500
2018-07-08T13:48:49.798Z,987.528
2018-07-08T13:50:49.956Z,987.539
2018-07-08T13:52:50.254Z,987.542
2018-07-08T13:54:50.361Z,987.526
2018-07-08T13:56:49.663Z,987.507
2018-07-08T13:58:49.777Z,987.501
2018-07-08T14:00:50.022Z,987.447
2018-07-08T14:02:50.149Z,987.426
2018-07-08T14:04:50.408Z,987.417
2018-07-08T14:06:49.733Z,987.416
2018-07-08T14:08:49.846Z,987.433
2018-07-08T14:10:50.199Z,987.418
2018-07-08T14:12:50.516Z,987.401
2018-07-08T14:14:49.975Z,987.332
2018-07-08T14:16:50.312Z,987.312
2018-07-08T14:18:50.397Z,987.299
2018-07-08T14:20:50.884Z,987.288
2018-07-08T14:22:49.794Z,987.276
2018-07-08T14:24:49.874Z,987.269
2018-07-08T14:26:50.219Z,987.281
2018-07-08T14:28:50.323Z,987.276
2018-07-08T14:30:50.450Z,987.249
2018-07-08T14:32:49.727Z,987.221
2018-07-08T14:34:50.423Z,987.244
2018-07-08T14:36:50.147Z,987.211
2018-07-08T14:38:50.321Z,987.163
2018-07-08T14:40:50.829Z,987.133
2018-07-08T14:42:50.086Z,987.122
2018-07-08T14:44:50.230Z,987.114
2018-07-08T14:46:50.498Z,987.099
2018-07-08T14:48:49.670Z,987.081
2018-07-08T14:50:49.866Z,987.055
2018-07-08T14:52:50.015Z,987.060
2018-07-08T14:54:50.152Z,987.067
2018-07-08T14:56:50.429Z,987.093
2018-07-08T14:58:50.591Z,987.071
2018-07-08T15:00:49.798Z,987.074
2018-07-08T15:02:50.014Z,987.047
2018-07-08T15:04:50.798Z,987.082
2018-07-08T15:06:50.472Z,987.057
2018-07-08T15:08:49.635Z,987.015
2018-07-08T15:10:49.956Z,987.033
2018-07-08T15:12:50.125Z,987.034
2018-07-08T15:14:50.250Z,987.056
2018-07-08T15:16:50.536Z,987.012
2018-07-08T15:18:49.629Z,986.982
2018-07-08T15:20:49.871Z,986.948
2018-07-08T15:22:50.377Z,986.940
2018-07-08T15:24:50.544Z,986.966
2018-07-08T15:26:49.889Z,986.976
2018-07-08T15:28:49.986Z,986.984
2018-07-08T15:30:50.363Z,986.951
2018-07-08T15:32:50.744Z,986.935
2018-07-08T15:34:50.179Z,986.903
2018-07-08T15:36:50.641Z,986.889
2018-07-08T15:38:49.842Z,986.894
2018-07-08T15:40:49.996Z,986.910
2018-07-08T15:42:50.125Z,986.895
2018-07-08T15:44:50.256Z,986.864
2018-07-08T15:46:50.589Z,986.864
2018-07-08T15:48:50.091Z,986.854
2018-07-08T15:50:50.370Z,986.820
2018-07-08T15:52:49.666Z,986.805
2018-07-08T15:54:49.925Z,986.809
2018-07-08T15:56:50.259Z,986.789
2018-07-08T15:58:50.394Z,986.777
2018-07-08T16:00:50.660Z,986.748
2018-07-08T16:02:49.807Z,986.735
2018-07-08T16:04:50.511Z,986.744
2018-07-08T16:06:49.888Z,986.724
2018-07-08T16:08:50.029Z,986.689
2018-07-08T16:10:50.159Z,986.671
2018-07-08T16:12:50.357Z,986.708
2018-07-08T16:14:50.522Z,986.747
2018-07-08T16:16:49.901Z,986.743
2018-07-08T16:18:50.449Z,986.734
2018-07-08T16:20:50.038Z,986.729
2018-07-08T16:22:50.187Z,986.712
2018-07-08T16:24:50.771Z,986.698
2018-07-08T16:26:49.890Z,986.681
2018-07-08T16:28:50.081Z,986.705
2018-07-08T16:30:50.198Z,986.699
2018-07-08T16:32:50.342Z,986.700
2018-07-08T16:34:49.700Z,986.687
2018-07-08T16:36:49.972Z,986.703
2018-07-08T16:38:50.281Z,986.711
2018-07-08T16:40:50.350Z,986.696
2018-07-08T16:42:50.582Z,986.672
2018-07-08T16:44:49.720Z,986.677
2018-07-08T16:46:50.097Z,986.679
2018-07-08T16:48:50.236Z,986.659
2018-07-08T16:50:50.328Z,986.652
2018-07-08T16:52:50.528Z,986.626
2018-07-08T16:54:49.620Z,986.604
2018-07-08T16:56:49.877Z,986.608
2018-07-08T16:58:50.035Z,986.592
2018-07-08T17:00:50.185Z,986.604
2018-07-08T17:02:50.390Z,986.627
2018-07-08T17:04:49.695Z,986.671
2018-07-08T17:06:50.018Z,986.659
2018-07-08T17:08:50.184Z,986.639
2018-07-08T17:10:50.509Z,986.629
2018-07-08T17:12:49.648Z,986.649
2018-07-08T17:14:49.795Z,986.665
2018-07-08T17:16:50.019Z,986.679
2018-07-08T17:18:50.172Z,986.711
2018-07-08T17:20:50.251Z,986.710
2018-07-08T17:22:50.550Z,986.713
2018-07-08T17:24:49.707Z,986.702
2018-07-08T17:26:50.042Z,986.693
2018-07-08T17:28:50.176Z,986.730
2018-07-08T17:30:50.260Z,986.760
2018-07-08T17:32:50.513Z,986.775
2018-07-08T17:34:50.212Z,986.777
2018-07-08T17:36:50.434Z,986.798
2018-07-08T17:38:50.567Z,986.801
2018-07-08T17:40:49.801Z,986.825
2018-07-08T17:42:50.123Z,986.836
2018-07-08T17:44:50.251Z,986.844
2018-07-08T17:46:50.494Z,986.872
2018-07-08T17:48:49.659Z,986.889
2018-07-08T17:50:49.929Z,986.895
2018-07-08T17:52:50.184Z,986.903
2018-07-08T17:54:49.877Z,986.916
2018-07-08T17:56:50.141Z,986.932
2018-07-08T17:58:50.201Z,986.950
2018-07-08T18:00:50.338Z,986.949
2018-07-08T18:02:50.535Z,986.957
2018-07-08T18:04:50.052Z,986.982
2018-07-08T18:06:50.331Z,987.006
2018-07-08T18:08:50.537Z,987.017
2018-07-08T18:10:49.897Z,987.032
2018-07-08T18:12:50.038Z,987.048
2018-07-08T18:14:50.267Z,987.050
2018-07-08T18:16:50.518Z,987.066
2018-07-08T18:18:49.725Z,987.080
2018-07-08T18:20:49.836Z,987.085
2018-07-08T18:22:50.176Z,987.095
2018-07-08T18:24:50.335Z,987.097
2018-07-08T18:26:49.732Z,987.096
2018-07-08T18:28:49.871Z,987.101
2018-07-08T18:30:50.019Z,987.102
2018-07-08T18:32:50.188Z,987.108
2018-07-08T18:34:49.805Z,987.117
2018-07-08T18:36:50.218Z,987.136
2018-07-08T18:38:50.454Z,987.146
2018-07-08T18:40:49.629Z,987.164
2018-07-08T18:42:49.752Z,987.182
2018-07-08T18:44:49.938Z,987.203
2018-07-08T18:46:50.261Z,987.204
2018-07-08T18:48:50.600Z,987.246
2018-07-08T18:50:49.752Z,987.249
2018-07-08T18:52:49.900Z,987.253
2018-07-08T18:54:50.098Z,987.268
2018-07-08T18:56:50.431Z,987.331
2018-07-08T18:58:49.616Z,987.357
2018-07-08T19:00:49.726Z,987.377
2018-07-08T19:02:49.879Z,987.404
2018-07-08T19:04:50.396Z,987.426
2018-07-08T19:06:49.728Z,987.448
2018-07-08T19:08:49.909Z,987.501
2018-07-08T19:10:50.083Z,987.523
2018-07-08T19:12:50.245Z,987.535
2018-07-08T19:14:50.500Z,987.546
2018-07-08T19:16:49.818Z,987.567
2018-07-08T19:18:49.904Z,987.581
2018-07-08T19:20:49.980Z,987.577
2018-07-08T19:22:50.128Z,987.587
2018-07-08T19:24:50.306Z,987.603
2018-07-08T19:26:49.621Z,987.599
2018-07-08T19:28:49.728Z,987.610
2018-07-08T19:30:49.949Z,987.615
2018-07-08T19:32:50.106Z,987.657
2018-07-08T19:34:49.683Z,987.657
2018-07-08T19:36:49.988Z,987.674
2018-07-08T19:38:50.162Z,987.695
2018-07-08T19:40:50.291Z,987.711
2018-07-08T19:42:49.663Z,987.718
2018-07-08T19:44:49.890Z,987.735
2018-07-08T19:46:50.273Z,987.760
2018-07-08T19:48:50.460Z,987.808
2018-07-08T19:50:49.604Z,987.814
2018-07-08T19:52:49.874Z,987.835
2018-07-08T19:54:50.056Z,987.847
2018-07-08T19:56:50.416Z,987.849
2018-07-08T19:58:50.602Z,987.850
2018-07-08T20:00:49.866Z,987.877
2018-07-08T20:02:50.007Z,987.878
2018-07-08T20:04:50.437Z,987.887
2018-07-08T20:06:49.811Z,987.892
2018-07-08T20:08:50.085Z,987.893
2018-07-08T20:10:50.247Z,987.914
2018-07-08T20:12:50.472Z,987.914
2018-07-08T20:14:49.696Z,987.947
2018-07-08T20:16:49.974Z,987.948
2018-07-08T20:18:50.234Z,987.976
2018-07-08T20:20:50.691Z,988.008
2018-07-08T20:22:50.137Z,988.017
2018-07-08T20:24:50.242Z,988.027
2018-07-08T20:26:49.692Z,988.018
2018-07-08T20:28:49.888Z,988.012
2018-07-08T20:30:50.111Z,988.023
2018-07-08T20:32:50.373Z,988.051
2018-07-08T20:34:49.650Z,988.089
2018-07-08T20:36:49.923Z,988.102
2018-07-08T20:38:50.051Z,988.115
2018-07-08T20:40:50.187Z,988.117
2018-07-08T20:42:50.349Z,988.132
2018-07-08T20:44:50.469Z,988.158
2018-07-08T20:46:49.707Z,988.178
2018-07-08T20:48:50.206Z,988.196
2018-07-08T20:50:50.412Z,988.218
2018-07-08T20:52:50.560Z,988.242
2018-07-08T20:54:49.874Z,988.233
2018-07-08T20:56:50.176Z,988.238
2018-07-08T20:58:50.364Z,988.222
2018-07-08T21:00:50.520Z,988.217
2018-07-08T21:02:49.676Z,988.223
2018-07-08T21:04:49.964Z,988.227
2018-07-08T21:06:50.321Z,988.216
2018-07-08T21:08:50.502Z,988.224
2018-07-08T21:10:49.754Z,988.225
2018-07-08T21:12:50.022Z,988.213
2018-07-08T21:14:50.136Z,988.206
2018-07-08T21:16:50.553Z,988.221
2018-07-08T21:18:49.997Z,988.231
2018-07-08T21:20:50.441Z,988.238
2018-07-08T21:22:49.667Z,988.240
2018-07-08T21:24:50.147Z,988.255
2018-07-08T21:26:50.090Z,988.255
2018-07-08T21:28:50.305Z,988.265
2018-07-08T21:30:50.443Z,988.275
2018-07-08T21:32:49.727Z,988.276
2018-07-08T21:34:50.236Z,988.281
2018-07-08T21:36:50.679Z,988.287
2018-07-08T21:38:50.207Z,988.289
2018-07-08T21:40:50.302Z,988.296
2018-07-08T21:42:50.419Z,988.285
2018-07-08T21:44:50.582Z,988.297
2018-07-08T21:46:49.916Z,988.296
2018-07-08T21:48:50.077Z,988.292
2018-07-08T21:50:50.167Z,988.301
2018-07-08T21:52:50.430Z,988.290
2018-07-08T21:54:49.689Z,988.281
2018-07-08T21:56:50.091Z,988.289
2018-07-08T21:58:50.184Z,988.296
2018-07-08T22:00:50.425Z,988.309
2018-07-08T22:02:49.751Z,988.321
2018-07-08T22:04:50.141Z,988.337
2018-07-08T22:06:49.671Z,988.344
2018-07-08T22:08:49.833Z,988.363
2018-07-08T22:10:50.050Z,988.358
2018-07-08T22:12:50.222Z,988.367
2018-07-08T22:14:50.610Z,988.367
2018-07-08T22:16:50.052Z,988.347
2018-07-08T22:18:50.202Z,988.344
2018-07-08T22:20:50.268Z,988.339
2018-07-08T22:22:50.593Z,988.340
2018-07-08T22:24:49.784Z,988.343
2018-07-08T22:26:50.069Z,988.354
2018-07-08T22:28:50.282Z,988.351
2018-07-08T22:30:50.442Z,988.355
2018-07-08T22:32:49.672Z,988.364
2018-07-08T22:34:49.970Z,988.372
2018-07-08T22:36:50.269Z,988.388
2018-07-08T22:38:50.447Z,988.390
2018-07-08T22:40:49.711Z,988.420
2018-07-08T22:42:50.031Z,988.423
2018-07-08T22:44:50.136Z,988.439
2018-07-08T22:46:50.547Z,988.422
2018-07-08T22:48:49.629Z,988.425
2018-07-08T22:50:49.837Z,988.408
2018-07-08T22:52:50.033Z,988.420
2018-07-08T22:54:50.132Z,988.422
2018-07-08T22:56:50.527Z,988.412
2018-07-08T22:58:49.641Z,988.394
2018-07-08T23:00:49.812Z,988.409
2018-07-08T23:02:49.986Z,988.418
2018-07-08T23:04:50.454Z,988.411
2018-07-08T23:06:49.785Z,988.426
2018-07-08T23:08:49.978Z,988.415
2018-07-08T23:10:50.096Z,988.395
2018-07-08T23:12:50.237Z,988.383
2018-07-08T23:14:50.432Z,988.378
2018-07-08T23:16:49.716Z,988.379
2018-07-08T23:18:49.944Z,988.401
2018-07-08T23:20:50.125Z,988.420
2018-07-08T23:22:50.258Z,988.452
2018-07-08T23:24:50.217Z,988.442
2018-07-08T23:26:50.475Z,988.434
2018-07-08T23:28:49.692Z,988.434
2018-07-08T23:30:49.847Z,988.432
2018-07-08T23:32:50.009Z,988.436
2018-07-08T23:34:49.678Z,988.426
2018-07-08T23:36:49.952Z,988.416
2018-07-08T23:38:50.037Z,988.413
2018-07-08T23:40:50.217Z,988.390
2018-07-08T23:42:50.319Z,988.359
2018-07-08T23:44:50.461Z,988.360
2018-07-08T23:46:49.896Z,988.347
2018-07-08T23:48:49.992Z,988.336
2018-07-08T23:50:50.157Z,988.336
2018-07-08T23:52:50.299Z,988.314
2018-07-08T23:54:50.408Z,988.332
2018-07-08T23:56:49.909Z,988.311
2018-07-08T23:58:50.095Z,988.278
